Time;durP1;ratioP1;P1;durP2;ratioP2;P2;SDS_P1;SDS_P2;PMS_P1;PMS_P2;Temp;Humidity;BMP_temperature;BMP_pressure;BME280_temperature;BME280_humidity;BME280_pressure;Samples;Min_cycle;Max_cycle;Signal;HPM_P1;HPM_P2
2021/11/29 00:00:19;;;;;;;12.07;6.43;;;;;;;-0.17;85.83;98886.94;8836464;33;20178;-74
2021/11/29 00:05:25;;;;;;;15.17;9.10;;;;;;;-0.06;86.60;98882.69;8812793;33;20261;-74
2021/11/29 00:10:31;;;;;;;13.43;8.00;;;;;;;0.01;85.99;98891.09;8837622;33;20174;-74
2021/11/29 00:15:34;;;;;;;14.23;8.43;;;;;;;0.16;85.91;98890.16;8837942;33;20664;-74
2021/11/29 00:20:37;;;;;;;11.57;6.90;;;;;;;-0.00;86.11;98899.09;8837499;33;20281;-73
2021/11/29 00:25:43;;;;;;;11.07;7.50;;;;;;;0.32;85.17;98890.03;8838168;33;20964;-74
2021/11/29 00:30:47;;;;;;;13.57;7.73;;;;;;;0.19;85.37;98912.00;8838175;33;20240;-73
2021/11/29 00:35:51;;;;;;;10.95;6.25;;;;;;;0.08;85.16;98903.00;8837563;33;20714;-76
2021/11/29 00:40:55;;;;;;;6.60;5.07;;;;;;;0.28;85.22;98908.81;8837748;33;20186;-73
2021/11/29 00:45:58;;;;;;;11.90;6.57;;;;;;;0.17;85.42;98909.50;8837606;33;20787;-74
2021/11/29 00:51:01;;;;;;;6.07;4.67;;;;;;;0.23;84.67;98895.06;8837170;33;20138;-73
2021/11/29 00:56:06;;;;;;;21.80;6.07;;;;;;;0.23;84.82;98900.34;8811422;33;20667;-73
2021/11/29 01:01:10;;;;;;;8.32;5.63;;;;;;;0.17;85.47;98907.69;8836521;33;20186;-74
2021/11/29 01:06:13;;;;;;;6.53;5.28;;;;;;;0.15;85.13;98919.28;8837407;33;20193;-73
2021/11/29 01:11:18;;;;;;;8.15;5.15;;;;;;;0.30;84.91;98913.06;8836251;33;20138;-73
2021/11/29 01:16:21;;;;;;;8.02;5.88;;;;;;;0.16;85.11;98921.84;8811113;33;20390;-73
2021/11/29 01:21:24;;;;;;;9.03;5.00;;;;;;;-0.05;85.56;98928.44;8835797;33;20404;-74
2021/11/29 01:26:28;;;;;;;7.40;4.90;;;;;;;0.33;84.12;98925.22;8835673;33;20488;-74
2021/11/29 01:31:31;;;;;;;7.67;5.60;;;;;;;0.06;84.70;98925.97;8835645;33;20146;-74
2021/11/29 01:36:36;;;;;;;7.72;6.13;;;;;;;0.02;84.78;98929.75;8835787;33;20150;-74
2021/11/29 01:41:43;;;;;;;6.35;4.78;;;;;;;-0.03;84.58;98929.16;8835919;33;20182;-74
2021/11/29 01:46:47;;;;;;;6.73;5.53;;;;;;;-0.21;85.16;98927.66;8810619;33;20192;-74
2021/11/29 01:51:50;;;;;;;10.37;6.20;;;;;;;-0.07;83.76;98927.66;8835708;33;20272;-74
2021/11/29 01:56:54;;;;;;;7.50;5.47;;;;;;;-0.35;84.16;98931.97;8836720;33;20178;-74
2021/11/29 02:01:58;;;;;;;8.17;5.53;;;;;;;-0.13;83.69;98951.81;8835995;33;20172;-75
2021/11/29 02:07:01;;;;;;;9.00;5.70;;;;;;;-0.06;83.35;98938.13;8809759;33;20462;-74
2021/11/29 02:12:07;;;;;;;8.80;5.90;;;;;;;-0.10;83.32;98947.19;8809363;33;20997;-74
2021/11/29 02:17:10;;;;;;;8.23;5.77;;;;;;;-0.04;83.28;98950.38;8834863;33;20178;-74
2021/11/29 02:22:15;;;;;;;8.30;5.57;;;;;;;-0.01;82.70;98952.84;8809219;33;20181;-74
2021/11/29 02:27:19;;;;;;;9.90;5.17;;;;;;;-0.19;83.43;98957.41;8834649;33;21523;-74
2021/11/29 02:32:22;;;;;;;12.13;6.60;;;;;;;-0.16;83.26;98952.84;8834681;33;20600;-74
2021/11/29 02:37:26;;;;;;;7.28;5.75;;;;;;;-0.18;83.28;98962.63;8834830;33;20178;-74
2021/11/29 02:42:29;;;;;;;5.07;4.50;;;;;;;-0.24;83.14;98959.50;8845434;33;20177;-74
2021/11/29 02:47:33;;;;;;;10.53;5.57;;;;;;;-0.12;82.68;98950.84;8849587;33;20232;-75
2021/11/29 02:52:37;;;;;;;13.07;6.77;;;;;;;-0.09;82.82;98963.84;8839050;33;20218;-74
2021/11/29 02:57:41;;;;;;;10.97;5.43;;;;;;;-0.17;82.21;98961.66;8835151;33;20230;-74
2021/11/29 03:02:44;;;;;;;7.83;5.23;;;;;;;-0.31;82.67;98967.75;8834880;33;20201;-74
2021/11/29 03:07:48;;;;;;;9.57;5.90;;;;;;;-0.10;81.77;98964.81;8834207;33;20560;-75
2021/11/29 03:12:52;;;;;;;13.93;6.30;;;;;;;-0.05;81.58;98970.66;8834456;33;20258;-74
2021/11/29 03:17:55;;;;;;;6.10;4.17;;;;;;;-0.04;81.35;98966.22;8808841;33;20196;-75
2021/11/29 03:22:59;;;;;;;10.97;7.37;;;;;;;0.01;81.14;98983.50;8833284;33;20227;-75
2021/11/29 03:28:02;;;;;;;11.70;6.13;;;;;;;-0.17;81.16;98981.94;8833723;33;20455;-74
2021/11/29 03:33:05;;;;;;;8.80;5.67;;;;;;;-0.10;80.91;98988.56;8835375;33;21009;-75
2021/11/29 03:38:10;;;;;;;8.73;5.80;;;;;;;-0.18;80.76;98988.16;8813743;33;21070;-75
2021/11/29 03:43:13;;;;;;;8.40;5.00;;;;;;;-0.52;81.64;98998.06;8838999;33;20195;-74
2021/11/29 03:48:17;;;;;;;6.20;4.80;;;;;;;-0.44;81.11;98995.78;8838788;33;20163;-75
2021/11/29 03:53:21;;;;;;;4.77;4.13;;;;;;;-0.74;81.56;99015.09;8838867;33;20192;-74
2021/11/29 03:58:25;;;;;;;5.87;5.03;;;;;;;-0.60;81.47;99011.69;8837928;33;20177;-74
2021/11/29 04:03:28;;;;;;;8.43;5.47;;;;;;;-0.28;80.94;99006.31;8811796;33;20590;-74
2021/11/29 04:08:32;;;;;;;6.50;4.97;;;;;;;-0.39;80.51;99012.22;8842902;33;20416;-73
2021/11/29 04:13:36;;;;;;;11.53;5.40;;;;;;;-0.48;80.61;99015.38;8822087;33;20964;-73
2021/11/29 04:18:41;;;;;;;7.10;4.90;;;;;;;-0.61;80.79;99023.13;8812252;33;20250;-73
2021/11/29 04:23:47;;;;;;;5.17;4.00;;;;;;;-0.49;79.80;99037.44;8844360;33;20905;-74
2021/11/29 04:28:52;;;;;;;10.53;4.93;;;;;;;-0.50;80.30;99036.56;8837168;33;20193;-74
2021/11/29 04:33:55;;;;;;;10.10;4.67;;;;;;;-0.69;80.07;99027.16;8836539;33;20170;-74
2021/11/29 04:39:00;;;;;;;6.67;4.73;;;;;;;-0.43;80.44;99037.09;8811281;33;20182;-73
2021/11/29 04:44:04;;;;;;;6.60;4.55;;;;;;;-0.52;79.95;99038.47;8836513;33;21036;-74
2021/11/29 04:49:07;;;;;;;5.87;3.80;;;;;;;-0.68;80.21;99045.53;8836094;33;20182;-74
2021/11/29 04:54:11;;;;;;;10.30;3.93;;;;;;;-0.60;79.51;99053.88;8835950;32;20206;-74
2021/11/29 04:59:15;;;;;;;7.83;4.30;;;;;;;-0.46;79.33;99055.72;8836064;33;20734;-74
2021/11/29 05:04:18;;;;;;;8.67;4.47;;;;;;;-0.53;79.43;99060.50;8835893;33;20199;-74
2021/11/29 05:09:23;;;;;;;14.13;7.80;;;;;;;-0.66;79.64;99056.00;8835799;33;20181;-75
2021/11/29 05:14:26;;;;;;;8.67;5.33;;;;;;;-0.66;79.70;99061.25;8836179;33;20420;-74
2021/11/29 05:19:29;;;;;;;7.97;5.03;;;;;;;-0.65;79.60;99065.63;8835392;33;20405;-74
2021/11/29 05:24:34;;;;;;;8.43;5.07;;;;;;;-0.72;79.88;99075.63;8835670;33;20134;-74
2021/11/29 05:29:37;;;;;;;7.53;5.67;;;;;;;-0.66;80.04;99088.47;8835180;33;21243;-74
2021/11/29 05:34:40;;;;;;;12.40;6.60;;;;;;;-0.41;79.31;99092.38;8836365;33;20536;-74
2021/11/29 05:39:56;;;;;;;16.60;8.03;;;;;;;-0.73;79.43;99102.97;8835723;33;20534;-74
2021/11/29 05:45:18;;;;;;;9.97;6.57;;;;;;;-0.61;79.23;99106.69;8810846;33;21579;-74
2021/11/29 05:50:21;;;;;;;9.73;5.20;;;;;;;-0.31;78.61;99120.81;8835785;33;20186;-74
2021/11/29 05:55:25;;;;;;;5.27;3.73;;;;;;;-0.47;78.58;99114.69;8835130;33;20446;-74
2021/11/29 06:00:29;;;;;;;6.33;3.87;;;;;;;-0.36;78.79;99117.56;8835707;33;20215;-74
2021/11/29 06:05:32;;;;;;;5.47;3.80;;;;;;;-0.45;78.53;99131.28;8836114;33;20178;-74
2021/11/29 06:10:37;;;;;;;4.33;3.33;;;;;;;-0.56;78.66;99144.22;8835561;33;20178;-74
2021/11/29 06:15:40;;;;;;;4.13;3.40;;;;;;;-0.42;78.98;99140.81;8835628;33;20806;-74
2021/11/29 06:20:43;;;;;;;5.00;3.60;;;;;;;-0.40;78.58;99154.78;8835646;33;20186;-74
2021/11/29 06:25:48;;;;;;;8.67;3.60;;;;;;;-0.42;78.95;99154.88;8835619;33;21000;-74
2021/11/29 06:30:51;;;;;;;6.53;3.53;;;;;;;-0.23;78.25;99167.88;8835142;33;20198;-73
2021/11/29 06:35:57;;;;;;;9.37;4.00;;;;;;;-0.24;77.82;99181.19;8835689;33;20241;-73
2021/11/29 06:41:02;;;;;;;7.80;3.47;;;;;;;-0.25;78.06;99190.03;8836150;33;20142;-74
2021/11/29 06:46:05;;;;;;;8.27;3.40;;;;;;;-0.28;78.22;99199.81;8835662;33;20184;-74
2021/11/29 06:51:09;;;;;;;6.63;3.83;;;;;;;-0.22;78.65;99208.31;8835332;33;20933;-74
2021/11/29 06:56:13;;;;;;;5.23;3.27;;;;;;;-0.48;78.13;99220.31;8835224;33;20419;-73
2021/11/29 07:01:17;;;;;;;7.17;3.40;;;;;;;-0.29;78.19;99234.22;8809186;33;20134;-73
2021/11/29 07:06:20;;;;;;;4.30;3.47;;;;;;;-0.34;77.99;99238.88;8834862;33;20193;-73
2021/11/29 07:11:24;;;;;;;7.33;3.47;;;;;;;-0.31;78.01;99244.00;8834223;33;21107;-74
2021/11/29 07:16:27;;;;;;;4.60;3.28;;;;;;;-0.31;77.76;99241.34;8834498;33;20186;-75
2021/11/29 07:21:31;;;;;;;6.73;3.47;;;;;;;-0.36;77.68;99251.31;8835001;33;20701;-74
2021/11/29 07:26:35;;;;;;;6.00;3.93;;;;;;;-0.43;78.28;99264.00;8838893;33;20670;-74
2021/11/29 07:31:39;;;;;;;5.07;3.20;;;;;;;-0.66;79.17;99270.47;8836044;33;20193;-73
2021/11/29 07:36:43;;;;;;;5.13;3.10;;;;;;;-0.49;79.07;99269.59;8835575;33;20182;-74
2021/11/29 07:41:47;;;;;;;6.53;2.73;;;;;;;-0.48;79.27;99279.22;8835811;33;20579;-74
2021/11/29 07:46:52;;;;;;;4.60;3.03;;;;;;;-0.30;79.42;99295.84;8823683;33;20333;-74
2021/11/29 07:51:55;;;;;;;5.73;3.57;;;;;;;-0.33;80.32;99302.16;8803277;33;20224;-74
2021/11/29 07:56:59;;;;;;;11.33;4.30;;;;;;;-0.50;81.04;99303.03;8780323;33;20394;-74
2021/11/29 08:02:03;;;;;;;6.93;3.87;;;;;;;-0.28;80.91;99315.06;8802296;33;20515;-74
2021/11/29 08:07:06;;;;;;;7.55;3.65;;;;;;;-0.30;81.31;99317.81;8802326;33;20151;-74
2021/11/29 08:12:12;;;;;;;5.90;4.00;;;;;;;-0.41;81.40;99319.28;8806383;33;22040;-75
2021/11/29 08:17:15;;;;;;;6.77;4.40;;;;;;;-0.29;81.81;99330.06;8834800;33;20951;-75
2021/11/29 08:22:18;;;;;;;10.73;4.60;;;;;;;-0.17;81.27;99339.13;8825631;33;20199;-74
2021/11/29 08:27:24;;;;;;;6.53;4.40;;;;;;;-0.09;81.69;99343.97;8811956;32;20152;-74
2021/11/29 08:32:27;;;;;;;8.70;4.85;;;;;;;0.01;82.09;99344.34;8806823;32;20183;-74
2021/11/29 08:37:30;;;;;;;8.77;5.00;;;;;;;0.26;80.95;99351.78;8809346;33;20181;-74
2021/11/29 08:42:34;;;;;;;8.27;5.60;;;;;;;0.34;80.60;99354.88;8794430;32;20251;-73
2021/11/29 08:47:37;;;;;;;7.63;4.65;;;;;;;0.35;80.51;99367.97;8754552;33;20701;-74
2021/11/29 08:52:40;;;;;;;6.70;4.85;;;;;;;0.37;80.60;99381.13;8785721;33;21464;-74
2021/11/29 08:57:45;;;;;;;5.95;4.80;;;;;;;0.21;81.49;99375.81;8814506;33;20175;-74
2021/11/29 09:02:48;;;;;;;9.27;5.83;;;;;;;0.00;82.66;99383.13;8797865;33;20187;-74
2021/11/29 09:07:57;;;;;;;9.27;5.82;;;;;;;0.27;81.87;99387.81;8756474;33;20190;-74
2021/11/29 09:13:02;;;;;;;6.97;5.20;;;;;;;0.50;81.63;99390.06;8779430;33;20258;-74
2021/11/29 09:18:06;;;;;;;9.13;5.15;;;;;;;0.50;82.03;99402.44;8753546;33;20267;-74
2021/11/29 09:23:09;;;;;;;7.78;5.13;;;;;;;0.27;82.40;99412.44;8776086;33;21469;-74
2021/11/29 09:28:15;;;;;;;8.48;5.60;;;;;;;0.20;83.12;99410.25;8752543;33;20170;-74
2021/11/29 09:33:18;;;;;;;7.65;6.20;;;;;;;0.68;82.78;99419.06;8776906;33;20355;-74
2021/11/29 09:38:21;;;;;;;8.57;5.82;;;;;;;0.84;82.05;99431.34;8776846;33;20231;-74
2021/11/29 09:43:26;;;;;;;11.88;6.25;;;;;;;0.82;81.53;99437.63;8750999;33;20269;-73
2021/11/29 09:48:29;;;;;;;10.70;6.05;;;;;;;0.89;81.91;99448.75;8776810;33;20189;-74
2021/11/29 09:53:33;;;;;;;11.27;7.07;;;;;;;1.13;81.60;99447.38;8776264;33;20246;-74
2021/11/29 09:58:38;;;;;;;10.73;6.60;;;;;;;1.31;81.93;99458.66;8775917;33;22032;-74
2021/11/29 10:03:44;;;;;;;11.32;6.00;;;;;;;1.35;81.34;99459.38;8776115;33;20186;-74
2021/11/29 10:08:48;;;;;;;10.57;5.95;;;;;;;1.27;81.10;99459.81;8776248;33;21195;-74
2021/11/29 10:14:02;;;;;;;16.70;7.72;;;;;;;1.16;80.87;99465.69;8773008;33;20191;-74
2021/11/29 10:19:10;;;;;;;11.07;6.22;;;;;;;1.16;81.10;99463.06;8775460;33;20228;-73
2021/11/29 10:24:18;;;;;;;11.32;6.80;;;;;;;1.33;80.87;99472.69;8775528;33;20248;-73
2021/11/29 10:29:27;;;;;;;13.57;6.75;;;;;;;1.50;81.18;99471.69;8774959;33;20341;-73
2021/11/29 10:34:33;;;;;;;12.30;7.22;;;;;;;1.70;81.09;99470.53;8775819;33;20181;-73
2021/11/29 10:39:41;;;;;;;12.07;6.43;;;;;;;1.82;80.70;99464.53;8775472;33;20573;-73
2021/11/29 10:44:47;;;;;;;12.43;7.03;;;;;;;1.90;80.70;99478.16;8774861;33;20178;-73
2021/11/29 10:49:52;;;;;;;11.98;7.40;;;;;;;1.89;79.49;99478.25;8774898;33;20193;-73
2021/11/29 10:54:58;;;;;;;14.75;7.88;;;;;;;1.64;79.40;99489.44;8775044;33;20225;-72
2021/11/29 11:00:13;;;;;;;12.18;7.07;;;;;;;1.93;79.66;99488.56;8774905;33;20230;-74
2021/11/29 11:05:16;;;;;;;13.65;7.43;;;;;;;2.15;79.83;99493.44;8775190;33;20143;-73
2021/11/29 11:10:20;;;;;;;12.05;7.65;;;;;;;2.22;79.80;99498.34;8782412;33;20164;-73
2021/11/29 11:15:24;;;;;;;12.43;7.03;;;;;;;1.91;78.63;99500.19;8830996;33;20447;-73
2021/11/29 11:20:37;;;;;;;16.55;7.65;;;;;;;2.14;77.95;99512.09;8808452;33;20186;-73
2021/11/29 11:25:42;;;;;;;13.85;8.00;;;;;;;2.34;77.97;99503.78;8833441;33;20246;-73
2021/11/29 11:30:47;;;;;;;11.90;7.22;;;;;;;2.32;76.58;99516.25;8808137;33;20201;-73
2021/11/29 11:35:53;;;;;;;13.02;7.57;;;;;;;2.50;76.54;99509.00;8833209;33;20149;-73
2021/11/29 11:40:56;;;;;;;14.25;7.90;;;;;;;2.60;77.11;99509.28;8833732;33;20200;-73
2021/11/29 11:46:01;;;;;;;13.82;7.60;;;;;;;2.47;75.68;99526.88;8834288;33;20985;-73
2021/11/29 11:51:04;;;;;;;12.02;7.28;;;;;;;2.43;76.98;99531.50;8808212;33;20190;-73
2021/11/29 11:56:08;;;;;;;11.73;7.10;;;;;;;2.34;76.38;99538.22;8837301;33;20447;-73
2021/11/29 12:01:17;;;;;;;10.05;6.53;;;;;;;2.23;75.93;99530.06;8838341;33;20182;-73
2021/11/29 12:06:21;;;;;;;12.25;7.05;;;;;;;2.26;75.52;99539.63;8839073;33;20530;-72
2021/11/29 12:11:35;;;;;;;11.35;6.97;;;;;;;2.19;75.28;99539.13;8838451;33;20182;-72
2021/11/29 12:16:44;;;;;;;12.15;7.55;;;;;;;2.25;75.50;99546.75;8837984;33;20236;-72
2021/11/29 12:21:48;;;;;;;10.82;6.95;;;;;;;1.90;73.16;99544.38;8837835;33;20602;-72
2021/11/29 12:27:04;;;;;;;9.82;6.13;;;;;;;2.22;73.29;99548.69;8838160;33;20186;-72
2021/11/29 12:32:15;;;;;;;8.98;5.95;;;;;;;2.11;72.17;99542.25;8837570;33;20238;-74
2021/11/29 12:37:21;;;;;;;8.68;4.93;;;;;;;1.86;70.81;99549.94;8837596;33;20192;-72
2021/11/29 12:43:00;;;;;;;9.30;5.28;;;;;;;1.97;72.36;99558.09;8837286;33;20190;-72
2021/11/29 12:48:16;;;;;;;9.02;5.30;;;;;;;2.49;71.69;99562.94;8840407;33;20255;-72
2021/11/29 12:53:40;;;;;;;7.93;4.47;;;;;;;3.36;66.32;99571.75;8837065;33;20234;-72
2021/11/29 12:58:55;;;;;;;13.07;5.35;;;;;;;2.92;68.12;99588.69;8836380;33;20193;-72
2021/11/29 13:04:00;;;;;;;9.88;5.03;;;;;;;2.44;68.85;99588.91;8836261;33;20699;-72
2021/11/29 13:09:15;;;;;;;5.53;4.38;;;;;;;2.62;69.40;99600.22;8837368;33;20765;-72
2021/11/29 13:14:24;;;;;;;7.15;4.93;;;;;;;2.94;69.17;99602.72;8837079;33;20512;-72
2021/11/29 13:19:39;;;;;;;8.77;5.25;;;;;;;2.65;67.79;99596.53;8836276;33;20277;-72
2021/11/29 13:24:46;;;;;;;8.73;5.25;;;;;;;2.90;69.15;99609.97;8836637;33;20247;-73
2021/11/29 13:29:51;;;;;;;9.05;5.28;;;;;;;3.15;68.05;99608.47;8836047;33;20196;-73
2021/11/29 13:35:00;;;;;;;9.05;4.72;;;;;;;3.09;68.22;99627.44;8836109;33;20185;-73
2021/11/29 13:40:12;;;;;;;8.50;5.10;;;;;;;2.73;68.28;99624.28;8836775;33;20174;-73
2021/11/29 13:45:18;;;;;;;8.05;4.25;;;;;;;2.69;68.98;99630.72;8836466;33;21873;-73
2021/11/29 13:50:26;;;;;;;7.97;5.15;;;;;;;2.48;70.68;99643.44;8798181;33;20203;-73
2021/11/29 13:55:33;;;;;;;7.43;4.75;;;;;;;2.47;69.82;99635.56;8775515;33;20279;-73
2021/11/29 14:00:39;;;;;;;8.15;5.57;;;;;;;2.34;70.37;99652.19;8775642;33;20179;-73
2021/11/29 14:05:47;;;;;;;11.43;6.05;;;;;;;2.24;69.86;99653.66;8751290;33;20534;-73
2021/11/29 14:10:56;;;;;;;8.27;4.82;;;;;;;2.37;69.50;99670.56;8775303;33;20384;-72
2021/11/29 14:16:06;;;;;;;7.28;4.50;;;;;;;2.12;69.27;99671.13;8775540;33;20489;-73
2021/11/29 14:21:16;;;;;;;10.48;5.63;;;;;;;1.95;70.03;99684.50;8775834;33;20175;-74
2021/11/29 14:26:33;;;;;;;10.18;5.25;;;;;;;1.78;70.82;99692.50;8776147;33;20190;-73
2021/11/29 14:31:38;;;;;;;10.98;4.70;;;;;;;2.02;70.62;99696.44;8775394;33;20185;-74
2021/11/29 14:36:47;;;;;;;9.63;5.82;;;;;;;1.88;70.66;99713.09;8774484;33;21173;-73
2021/11/29 14:41:55;;;;;;;8.75;5.40;;;;;;;1.89;70.83;99709.53;8774661;33;20633;-73
2021/11/29 14:47:09;;;;;;;10.85;5.75;;;;;;;1.76;71.04;99697.91;8784699;33;21668;-73
2021/11/29 14:52:16;;;;;;;10.85;5.47;;;;;;;1.45;71.87;99720.78;8790507;33;20484;-73
2021/11/29 14:57:23;;;;;;;11.15;5.68;;;;;;;1.70;72.03;99720.28;8779269;33;20450;-73
2021/11/29 15:02:26;;;;;;;11.02;6.15;;;;;;;1.39;71.98;99734.31;8815192;33;20438;-73
2021/11/29 15:07:32;;;;;;;8.13;4.90;;;;;;;1.54;72.42;99743.25;8805479;33;21929;-73
2021/11/29 15:12:38;;;;;;;8.10;5.90;;;;;;;1.47;71.95;99749.78;8778554;33;21135;-74
2021/11/29 15:17:44;;;;;;;11.00;5.57;;;;;;;1.56;72.15;99756.38;8776465;33;20240;-74
2021/11/29 15:22:52;;;;;;;9.98;4.88;;;;;;;1.38;73.84;99768.81;8775010;33;20200;-74
2021/11/29 15:28:07;;;;;;;11.68;6.68;;;;;;;1.27;75.35;99772.03;8779337;33;20303;-73
2021/11/29 15:33:13;;;;;;;11.77;7.60;;;;;;;1.15;77.66;99777.94;8782718;33;21613;-73
2021/11/29 15:38:20;;;;;;;12.57;7.22;;;;;;;1.33;77.69;99781.44;8780720;33;20190;-73
2021/11/29 15:43:28;;;;;;;12.95;7.72;;;;;;;1.24;78.04;99793.34;8777995;33;20194;-72
2021/11/29 15:48:35;;;;;;;17.65;9.82;;;;;;;1.21;78.49;99783.78;8780587;33;20203;-73
2021/11/29 15:53:42;;;;;;;15.23;9.02;;;;;;;1.16;79.18;99800.81;8778928;33;20178;-73
2021/11/29 15:58:47;;;;;;;15.80;9.38;;;;;;;1.12;78.96;99808.03;8780077;33;20246;-74
2021/11/29 16:03:53;;;;;;;19.25;9.90;;;;;;;1.23;78.35;99807.50;8761426;33;20179;-72
2021/11/29 16:08:59;;;;;;;17.10;9.43;;;;;;;1.15;78.10;99817.63;8809000;33;20273;-73
2021/11/29 16:14:02;;;;;;;17.55;9.30;;;;;;;1.17;78.08;99826.34;8805518;33;20673;-73
2021/11/29 16:19:05;;;;;;;20.48;8.55;;;;;;;1.17;78.40;99828.97;8806523;33;20310;-73
2021/11/29 16:24:14;;;;;;;12.95;7.78;;;;;;;1.16;78.23;99833.44;8808722;33;20751;-73
2021/11/29 16:29:17;;;;;;;14.80;9.52;;;;;;;1.10;78.27;99836.38;8806592;33;20187;-74
2021/11/29 16:34:20;;;;;;;17.92;9.50;;;;;;;0.89;79.06;99834.81;8805261;33;20277;-73
2021/11/29 16:39:24;;;;;;;15.63;9.90;;;;;;;1.06;78.29;99843.59;8803999;33;20202;-74
2021/11/29 16:44:27;;;;;;;15.07;8.30;;;;;;;0.90;78.57;99842.66;8807361;33;20211;-73
2021/11/29 16:49:30;;;;;;;15.43;8.07;;;;;;;0.97;78.04;99848.50;8806150;33;20190;-74
2021/11/29 16:54:35;;;;;;;15.50;9.10;;;;;;;1.12;77.97;99852.16;8808375;33;20182;-74
2021/11/29 16:59:38;;;;;;;20.30;10.90;;;;;;;1.02;77.81;99850.00;8805158;33;20193;-72
2021/11/29 17:04:42;;;;;;;15.88;9.30;;;;;;;1.04;77.87;99852.53;8804761;33;20698;-73
2021/11/29 17:09:46;;;;;;;16.50;9.57;;;;;;;1.12;77.94;99862.75;8804168;33;21186;-73
2021/11/29 17:14:50;;;;;;;15.43;8.07;;;;;;;1.02;78.01;99871.16;8781664;33;20186;-73
2021/11/29 17:19:54;;;;;;;18.10;9.77;;;;;;;1.01;78.78;99879.16;8805191;33;20869;-73
2021/11/29 17:24:58;;;;;;;16.35;9.43;;;;;;;0.83;80.68;99886.22;8828099;33;20255;-73
2021/11/29 17:30:01;;;;;;;19.10;9.80;;;;;;;0.88;81.43;99878.91;8836303;33;20510;-73
2021/11/29 17:35:05;;;;;;;18.98;9.80;;;;;;;0.55;82.87;99889.31;8818275;33;20477;-73
2021/11/29 17:40:13;;;;;;;20.55;10.55;;;;;;;0.68;82.15;99887.78;8802857;33;20710;-73
2021/11/29 17:45:21;;;;;;;21.05;10.73;;;;;;;0.79;82.09;99893.41;8805539;33;20182;-73
2021/11/29 17:50:26;;;;;;;20.35;9.77;;;;;;;0.77;82.02;99890.00;8805040;33;20333;-73
2021/11/29 17:55:31;;;;;;;21.63;10.80;;;;;;;0.72;81.69;99899.09;8778224;33;20186;-73
2021/11/29 18:00:34;;;;;;;22.35;11.88;;;;;;;0.82;81.85;99913.56;8823915;33;20182;-73
2021/11/29 18:05:37;;;;;;;19.63;11.80;;;;;;;0.91;81.56;99899.06;8836742;33;21470;-73
2021/11/29 18:16:05;;;;;;;22.75;10.82;;;;;;;0.71;81.32;99902.66;8835798;33;20197;-73
2021/11/29 18:21:08;;;;;;;20.93;10.93;;;;;;;0.64;81.68;99903.91;8831241;33;20196;-73
2021/11/29 18:26:14;;;;;;;18.80;10.50;;;;;;;0.72;81.42;99907.03;8835955;33;20627;-73
2021/11/29 18:31:17;;;;;;;23.75;12.43;;;;;;;0.85;81.19;99913.44;8789524;33;20579;-73
2021/11/29 18:36:20;;;;;;;23.92;10.02;;;;;;;0.63;81.69;99903.00;8803933;33;20474;-73
2021/11/29 18:41:25;;;;;;;21.40;11.00;;;;;;;0.56;81.42;99905.09;8801221;33;20212;-73
2021/11/29 18:46:28;;;;;;;21.85;10.73;;;;;;;0.53;81.84;99909.69;8805985;33;20242;-73
2021/11/29 18:51:31;;;;;;;17.85;10.50;;;;;;;0.60;81.96;99904.03;8803576;33;20186;-73
2021/11/29 18:56:37;;;;;;;21.80;10.55;;;;;;;0.53;81.96;99902.59;8777835;33;20239;-73
2021/11/29 19:01:40;;;;;;;20.67;10.63;;;;;;;0.45;81.90;99909.19;8832170;33;20127;-73
2021/11/29 19:06:44;;;;;;;23.67;12.15;;;;;;;0.72;81.38;99910.53;8833102;33;20214;-73
2021/11/29 19:11:49;;;;;;;22.85;10.55;;;;;;;0.63;81.44;99913.59;8809365;33;20611;-73
2021/11/29 19:16:52;;;;;;;22.52;9.75;;;;;;;0.55;81.42;99899.88;8834013;33;20586;-73
2021/11/29 19:21:56;;;;;;;19.95;10.52;;;;;;;0.78;80.91;99901.44;8834266;33;20200;-72
2021/11/29 19:27:00;;;;;;;26.27;12.02;;;;;;;0.72;80.99;99902.59;8833984;33;20686;-73
2021/11/29 19:32:04;;;;;;;22.98;10.85;;;;;;;0.57;81.33;99893.59;8787550;33;20328;-73
2021/11/29 19:37:07;;;;;;;18.98;10.00;;;;;;;0.57;80.75;99909.44;8773774;33;20185;-72
2021/11/29 19:42:12;;;;;;;24.30;11.15;;;;;;;0.52;81.00;99915.88;8773192;33;20132;-72
2021/11/29 19:47:15;;;;;;;18.45;10.05;;;;;;;0.64;80.55;99917.13;8773711;33;20748;-73
2021/11/29 19:52:18;;;;;;;25.48;12.85;;;;;;;0.79;79.46;99924.28;8774062;33;20764;-73
2021/11/29 19:57:22;;;;;;;19.00;9.05;;;;;;;0.73;79.99;99930.72;8780625;33;20594;-73
2021/11/29 20:02:25;;;;;;;21.40;10.60;;;;;;;0.69;80.42;99936.25;8800317;33;20941;-73
2021/11/29 20:07:48;;;;;;;22.58;12.57;;;;;;;0.78;80.05;99943.75;8826893;32;20178;-73
2021/11/29 20:12:53;;;;;;;22.20;10.80;;;;;;;0.74;80.04;99931.59;8833966;33;20131;-73
2021/11/29 20:17:56;;;;;;;20.25;11.10;;;;;;;0.74;79.77;99928.94;8837610;32;20186;-73
2021/11/29 20:22:59;;;;;;;15.10;7.87;;;;;;;0.54;80.05;99898.19;8838190;32;20223;-73
2021/11/29 20:28:05;;;;;;;22.30;11.32;;;;;;;0.47;80.47;99892.34;8839095;32;20282;-73
2021/11/29 20:33:08;;;;;;;21.70;11.67;;;;;;;0.58;80.21;99897.13;8812494;32;20238;-73
2021/11/29 20:38:12;;;;;;;25.58;11.52;;;;;;;0.47;80.69;99905.53;8837784;32;21151;-73
2021/11/29 20:43:16;;;;;;;22.60;11.70;;;;;;;0.44;80.99;99895.13;8824555;32;20186;-73
2021/11/29 20:48:19;;;;;;;21.85;11.82;;;;;;;0.56;80.37;99885.75;8781627;33;20212;-73
2021/11/29 20:53:22;;;;;;;23.77;11.47;;;;;;;0.53;80.35;99883.25;8806656;33;20239;-74
2021/11/29 20:58:27;;;;;;;23.98;12.00;;;;;;;0.44;80.72;99879.28;8804565;33;20199;-73
2021/11/29 21:03:30;;;;;;;21.92;11.27;;;;;;;0.44;80.74;99884.56;8809904;33;20178;-73
2021/11/29 21:08:34;;;;;;;20.88;11.40;;;;;;;0.61;79.94;99895.19;8846356;33;20931;-73
2021/11/29 21:13:42;;;;;;;23.20;11.48;;;;;;;0.69;80.13;99902.75;8839592;33;20527;-73
2021/11/29 21:18:45;;;;;;;22.42;12.05;;;;;;;0.91;78.98;99897.28;8810586;33;20612;-73
2021/11/29 21:23:49;;;;;;;21.40;10.98;;;;;;;0.96;78.71;99881.16;8797670;33;20610;-73
2021/11/29 21:28:53;;;;;;;24.73;11.57;;;;;;;0.85;78.66;99879.06;8797178;33;20178;-74
2021/11/29 21:33:56;;;;;;;22.40;12.13;;;;;;;0.97;78.87;99883.75;8807703;33;20224;-74
2021/11/29 21:39:00;;;;;;;22.45;11.90;;;;;;;0.97;78.67;99886.38;8815753;33;20152;-73
2021/11/29 21:44:05;;;;;;;23.65;12.18;;;;;;;0.89;79.32;99877.13;8782212;33;20931;-73
2021/11/29 21:49:11;;;;;;;27.65;12.65;;;;;;;0.89;79.40;99866.53;8805519;33;20414;-74
2021/11/29 21:54:14;;;;;;;23.17;13.68;;;;;;;0.96;79.41;99860.88;8804673;33;20189;-73
2021/11/29 21:59:19;;;;;;;20.92;10.65;;;;;;;0.85;80.10;99857.91;8803635;33;20173;-74
2021/11/29 22:04:22;;;;;;;25.50;13.43;;;;;;;0.86;80.50;99856.97;8806021;33;20317;-72
2021/11/29 22:09:25;;;;;;;17.05;8.27;;;;;;;0.82;80.64;99853.63;8803434;33;20186;-72
2021/11/29 22:14:29;;;;;;;24.13;11.67;;;;;;;1.11;80.09;99866.34;8807168;33;22802;-72
2021/11/29 22:19:33;;;;;;;21.95;11.57;;;;;;;1.06;80.36;99861.25;8775593;33;20217;-73
2021/11/29 22:24:36;;;;;;;24.85;13.13;;;;;;;1.12;80.37;99852.16;8798994;33;20239;-73
2021/11/29 22:29:40;;;;;;;23.58;13.82;;;;;;;1.17;80.06;99847.50;8794518;33;20264;-73
2021/11/29 22:34:44;;;;;;;24.15;13.30;;;;;;;1.16;80.46;99851.09;8777040;33;20188;-73
2021/11/29 22:39:47;;;;;;;26.35;14.38;;;;;;;1.19;80.52;99830.63;8749934;33;20240;-73
2021/11/29 22:44:52;;;;;;;28.15;14.05;;;;;;;1.22;80.50;99837.53;8776074;33;20649;-73
2021/11/29 22:49:55;;;;;;;25.35;13.48;;;;;;;1.19;80.66;99825.31;8775880;33;20548;-73
2021/11/29 22:54:58;;;;;;;26.83;13.57;;;;;;;1.15;81.60;99814.97;8774670;33;20228;-73
2021/11/29 23:00:06;;;;;;;29.70;14.40;;;;;;;1.25;81.77;99797.69;8774133;33;20155;-73
2021/11/29 23:05:09;;;;;;;33.15;15.70;;;;;;;1.06;82.99;99801.28;8774739;33;21117;-73
2021/11/29 23:10:12;;;;;;;35.40;16.65;;;;;;;1.23;81.94;99799.56;8773580;33;22034;-73
2021/11/29 23:15:17;;;;;;;33.20;16.60;;;;;;;1.28;83.15;99786.94;8774010;33;20143;-73
2021/11/29 23:20:20;;;;;;;32.38;16.98;;;;;;;1.28;83.49;99786.94;8773314;33;20332;-73
2021/11/29 23:25:23;;;;;;;34.72;17.30;;;;;;;1.29;83.61;99788.69;8774209;33;20185;-73
2021/11/29 23:30:27;;;;;;;35.60;15.35;;;;;;;1.31;84.27;99767.41;8775865;33;20174;-73
2021/11/29 23:35:31;;;;;;;32.85;16.40;;;;;;;1.09;84.79;99757.09;8773392;33;20621;-73
2021/11/29 23:40:35;;;;;;;24.42;13.30;;;;;;;1.18;85.63;99756.59;8747980;33;20187;-73
2021/11/29 23:45:44;;;;;;;35.53;19.00;;;;;;;1.17;86.02;99754.91;8772894;33;20486;-73
2021/11/29 23:50:47;;;;;;;21.77;12.02;;;;;;;1.28;86.38;99749.91;8775511;33;20255;-73
2021/11/29 23:55:54;;;;;;;22.70;12.52;;;;;;;1.28;86.09;99752.56;8778343;33;20186;-73
